Time;durP1;ratioP1;P1;durP2;ratioP2;P2;SDS_P1;SDS_P2;PMS_P1;PMS_P2;Temp;Humidity;BMP_temperature;BMP_pressure;BME280_temperature;BME280_humidity;BME280_pressure;Samples;Min_cycle;Max_cycle;Signal;HPM_P1;HPM_P2
2021/05/14 00:01:03;;;;;;;18.20;12.15;;;8.20;99.90;;;;;;5025390;28;20484;-76
2021/05/14 00:03:29;;;;;;;18.35;11.88;;;8.20;99.90;;;;;;5027945;28;20050;-76
2021/05/14 00:05:57;;;;;;;20.08;11.65;;;8.20;99.90;;;;;;5027630;28;20065;-76
2021/05/14 00:08:23;;;;;;;18.98;11.88;;;8.20;99.90;;;;;;5023577;28;20030;-76
2021/05/14 00:10:50;;;;;;;17.75;11.45;;;8.20;99.90;;;;;;5024413;28;20105;-77
2021/05/14 00:13:16;;;;;;;17.65;11.70;;;8.30;99.90;;;;;;5018500;28;20124;-76
2021/05/14 00:15:42;;;;;;;18.52;12.27;;;8.30;99.90;;;;;;5020419;28;20137;-77
2021/05/14 00:18:11;;;;;;;18.25;11.70;;;8.30;99.90;;;;;;5029106;28;20108;-77
2021/05/14 00:20:37;;;;;;;;;;;8.30;99.90;;;;;;5026032;28;20064;-76
2021/05/14 00:23:05;;;;;;;23.33;12.38;;;8.30;99.90;;;;;;5025748;28;19960;-76
2021/05/14 00:25:31;;;;;;;20.02;12.60;;;8.30;99.90;;;;;;5036994;28;20030;-76
2021/05/14 00:27:56;;;;;;;;;;;8.30;99.90;;;;;;5037152;28;20109;-76
2021/05/14 00:30:22;;;;;;;21.73;13.07;;;8.30;99.90;;;;;;5027110;28;20020;-76
2021/05/14 00:32:48;;;;;;;21.02;13.30;;;8.30;99.90;;;;;;5019146;28;20033;-76
2021/05/14 00:35:17;;;;;;;20.02;12.60;;;8.30;99.90;;;;;;5030743;28;20120;-77
2021/05/14 00:37:42;;;;;;;;;;;8.40;99.90;;;;;;5021730;28;20072;-77
2021/05/14 00:40:09;;;;;;;19.92;12.75;;;8.30;99.90;;;;;;5021462;28;19956;-77
2021/05/14 00:42:35;;;;;;;21.85;13.40;;;8.40;99.90;;;;;;5010268;28;20373;-77
2021/05/14 00:45:03;;;;;;;24.52;14.93;;;8.40;99.90;;;;;;5025278;28;20060;-77
2021/05/14 00:47:29;;;;;;;21.10;12.90;;;8.40;99.90;;;;;;5027420;28;20479;-76
2021/05/14 00:49:55;;;;;;;18.00;11.85;;;8.40;99.90;;;;;;5027176;28;20056;-76
2021/05/14 00:52:21;;;;;;;19.10;11.20;;;8.40;99.90;;;;;;5023524;28;20067;-76
2021/05/14 00:54:48;;;;;;;19.65;12.25;;;8.40;99.90;;;;;;5016639;28;20034;-77
2021/05/14 00:57:16;;;;;;;18.23;10.25;;;8.40;99.90;;;;;;5023923;28;20115;-77
2021/05/14 00:59:47;;;;;;;18.63;11.13;;;8.40;99.90;;;;;;5027603;28;20065;-77
2021/05/14 01:02:14;;;;;;;17.98;11.30;;;8.40;99.90;;;;;;5017291;28;20041;-76
2021/05/14 01:04:42;;;;;;;16.48;10.07;;;8.30;99.90;;;;;;5020626;28;20037;-77
2021/05/14 01:07:08;;;;;;;14.00;9.05;;;8.30;99.90;;;;;;5022782;28;20448;-76
2021/05/14 01:09:34;;;;;;;13.88;8.80;;;8.20;99.90;;;;;;5017269;28;20503;-77
2021/05/14 01:12:01;;;;;;;14.70;9.27;;;8.30;99.90;;;;;;5009245;28;20156;-77
2021/05/14 01:14:28;;;;;;;14.23;9.18;;;8.30;99.90;;;;;;5030288;28;20042;-76
2021/05/14 01:16:54;;;;;;;16.75;10.30;;;8.20;99.90;;;;;;5028046;28;20099;-76
2021/05/14 01:19:20;;;;;;;15.52;9.68;;;8.20;99.90;;;;;;5027927;28;20042;-75
2021/05/14 01:21:46;;;;;;;14.98;9.50;;;8.20;99.90;;;;;;5032377;28;20068;-76
2021/05/14 01:24:12;;;;;;;14.20;9.00;;;8.20;99.90;;;;;;5034292;28;20040;-76
2021/05/14 01:26:38;;;;;;;15.85;9.20;;;8.20;99.90;;;;;;5019456;28;20049;-76
2021/05/14 01:29:07;;;;;;;16.20;8.98;;;8.20;99.90;;;;;;5013548;28;20360;-76
2021/05/14 01:31:33;;;;;;;14.35;9.18;;;8.20;99.90;;;;;;5019731;28;20104;-76
2021/05/14 01:33:59;;;;;;;15.80;8.68;;;8.20;99.90;;;;;;5033870;28;20081;-76
2021/05/14 01:36:24;;;;;;;12.00;8.60;;;8.20;99.90;;;;;;5028037;28;20044;-77
2021/05/14 01:38:50;;;;;;;16.58;9.55;;;8.20;99.90;;;;;;5028282;28;20072;-76
2021/05/14 01:41:16;;;;;;;12.95;9.32;;;8.20;99.90;;;;;;5025996;28;20084;-77
2021/05/14 01:43:42;;;;;;;17.42;9.60;;;8.20;99.90;;;;;;5028730;28;20116;-77
2021/05/14 01:46:08;;;;;;;15.00;9.25;;;8.20;99.90;;;;;;5028645;28;20038;-77
2021/05/14 01:48:34;;;;;;;15.48;10.02;;;8.20;99.90;;;;;;5025794;28;20078;-76
2021/05/14 01:51:16;;;;;;;14.35;8.70;;;8.20;99.90;;;;;;5010344;28;20044;-76
2021/05/14 01:53:42;;;;;;;14.02;8.32;;;8.20;99.90;;;;;;5022277;28;20060;-76
2021/05/14 01:56:08;;;;;;;13.38;6.78;;;8.20;99.90;;;;;;5023300;28;20038;-76
2021/05/14 01:58:33;;;;;;;11.75;7.90;;;8.20;99.90;;;;;;5028654;28;20038;-76
2021/05/14 02:00:59;;;;;;;11.60;8.10;;;8.20;99.90;;;;;;5031485;28;20080;-76
2021/05/14 02:03:25;;;;;;;11.50;7.28;;;8.20;99.90;;;;;;5022260;28;20506;-77
2021/05/14 02:05:51;;;;;;;11.95;7.25;;;8.30;99.90;;;;;;5021995;28;20049;-77
2021/05/14 02:08:17;;;;;;;12.57;7.43;;;8.20;99.90;;;;;;5019814;28;20368;-77
2021/05/14 02:10:42;;;;;;;11.93;7.25;;;8.10;99.90;;;;;;5010529;28;20176;-77
2021/05/14 02:13:08;;;;;;;12.30;7.95;;;8.10;99.90;;;;;;5025791;28;20071;-77
2021/05/14 02:15:34;;;;;;;12.88;7.90;;;8.20;99.90;;;;;;5028267;28;20033;-77
2021/05/14 02:18:00;;;;;;;9.88;7.15;;;8.30;99.90;;;;;;5026952;28;20061;-75
2021/05/14 02:20:34;;;;;;;12.95;6.60;;;8.10;99.90;;;;;;5009466;28;20042;-76
2021/05/14 02:23:00;;;;;;;12.85;7.18;;;8.20;99.90;;;;;;5017766;28;20038;-77
2021/05/14 02:25:26;;;;;;;9.38;6.53;;;8.20;99.90;;;;;;5012219;28;20392;-76
2021/05/14 02:27:52;;;;;;;12.30;6.30;;;8.20;99.90;;;;;;5026835;28;20033;-76
2021/05/14 02:30:18;;;;;;;12.48;6.97;;;8.20;99.90;;;;;;5022256;28;20045;-76
2021/05/14 02:32:44;;;;;;;10.23;6.63;;;8.20;99.90;;;;;;5043945;28;20394;-76
2021/05/14 02:35:11;;;;;;;11.63;6.22;;;8.20;99.90;;;;;;5031079;28;20037;-77
2021/05/14 02:37:37;;;;;;;11.27;6.38;;;8.20;99.90;;;;;;5036915;28;20081;-77
2021/05/14 02:40:03;;;;;;;10.68;5.63;;;8.30;99.90;;;;;;5026568;28;20459;-77
2021/05/14 02:42:29;;;;;;;10.60;6.22;;;8.30;99.90;;;;;;5024080;28;20038;-77
2021/05/14 02:44:55;;;;;;;12.77;7.20;;;8.30;99.90;;;;;;5025459;28;20113;-77
2021/05/14 02:47:21;;;;;;;14.68;6.70;;;8.30;99.90;;;;;;5026608;28;20045;-76
2021/05/14 02:49:47;;;;;;;15.68;8.20;;;8.30;99.90;;;;;;5029437;28;20060;-77
2021/05/14 02:52:13;;;;;;;13.10;7.40;;;8.30;99.90;;;;;;5022690;28;20415;-77
2021/05/14 02:54:38;;;;;;;14.93;7.93;;;8.30;99.90;;;;;;5031671;28;20061;-77
2021/05/14 02:57:05;;;;;;;13.65;7.95;;;8.30;99.90;;;;;;5020436;28;20037;-77
2021/05/14 02:59:31;;;;;;;14.55;7.15;;;8.30;99.90;;;;;;5021871;28;20065;-76
2021/05/14 03:01:58;;;;;;;13.00;7.07;;;8.30;99.90;;;;;;5040379;28;20062;-76
2021/05/14 03:04:24;;;;;;;17.15;8.30;;;8.30;99.90;;;;;;5030137;28;20116;-76
2021/05/14 03:06:50;;;;;;;12.13;7.03;;;8.30;99.90;;;;;;5024440;28;20472;-76
2021/05/14 03:09:16;;;;;;;8.63;6.18;;;8.30;99.90;;;;;;5026363;28;20041;-77
2021/05/14 03:11:42;;;;;;;12.98;6.97;;;8.30;99.90;;;;;;5021198;28;20038;-76
2021/05/14 03:14:07;;;;;;;12.13;6.80;;;8.30;99.90;;;;;;5029082;28;20041;-76
2021/05/14 03:16:34;;;;;;;10.77;6.57;;;8.30;99.90;;;;;;5025935;28;20045;-76
2021/05/14 03:19:01;;;;;;;14.20;7.00;;;8.30;99.90;;;;;;5017626;28;20045;-75
2021/05/14 03:21:29;;;;;;;12.50;6.80;;;8.30;99.90;;;;;;5027516;28;20633;-76
2021/05/14 03:23:54;;;;;;;11.07;7.13;;;8.30;99.90;;;;;;5027684;28;20038;-77
2021/05/14 03:26:20;;;;;;;10.95;7.05;;;8.30;99.90;;;;;;5035359;28;20036;-76
2021/05/14 03:28:46;;;;;;;12.35;7.90;;;8.40;99.90;;;;;;5041349;28;20044;-77
2021/05/14 03:31:12;;;;;;;15.05;6.60;;;8.40;99.90;;;;;;5023869;28;20169;-76
2021/05/14 03:33:38;;;;;;;11.60;6.78;;;8.50;99.90;;;;;;5034532;28;20113;-76
2021/05/14 03:36:05;;;;;;;10.82;6.85;;;8.40;99.90;;;;;;5022204;28;20128;-76
2021/05/14 03:38:35;;;;;;;11.60;7.20;;;8.40;99.90;;;;;;5034214;28;20038;-76
2021/05/14 03:41:17;;;;;;;14.73;6.95;;;8.40;99.90;;;;;;5014736;28;20037;-76
2021/05/14 03:43:45;;;;;;;13.38;6.65;;;8.40;99.90;;;;;;5026264;28;20102;-77
2021/05/14 03:46:12;;;;;;;13.20;7.60;;;8.40;99.90;;;;;;5018842;28;20038;-76
2021/05/14 03:48:39;;;;;;;10.93;7.20;;;8.40;99.90;;;;;;5029811;28;20061;-77
2021/05/14 03:51:05;;;;;;;13.43;7.03;;;8.40;99.90;;;;;;5030003;28;20038;-76
2021/05/14 03:53:31;;;;;;;11.88;6.57;;;8.40;99.90;;;;;;5036803;28;20540;-77
2021/05/14 03:55:56;;;;;;;14.18;7.10;;;8.40;99.90;;;;;;5029735;28;20112;-77
2021/05/14 03:58:22;;;;;;;12.75;6.55;;;8.40;99.90;;;;;;5034302;28;20038;-77
2021/05/14 04:00:49;;;;;;;12.45;6.82;;;8.40;99.90;;;;;;5018191;28;20057;-77
2021/05/14 04:03:20;;;;;;;11.30;6.82;;;8.40;99.90;;;;;;5034731;28;20533;-77
2021/05/14 04:05:46;;;;;;;12.82;6.53;;;8.40;99.90;;;;;;5018974;28;20041;-76
2021/05/14 04:08:12;;;;;;;11.02;6.28;;;8.50;99.90;;;;;;5020081;28;20052;-76
2021/05/14 04:16:08;;;;;;;10.48;5.60;;;8.40;99.90;;;;;;5013296;28;20045;-77
2021/05/14 04:18:40;;;;;;;13.52;6.43;;;8.40;99.90;;;;;;5028810;28;20073;-77
2021/05/14 04:21:07;;;;;;;10.18;6.15;;;8.40;99.90;;;;;;5028161;28;20116;-78
2021/05/14 04:23:33;;;;;;;10.80;5.70;;;8.40;99.90;;;;;;5026142;28;20741;-76
2021/05/14 04:25:59;;;;;;;;;;;8.40;99.90;;;;;;5032230;28;20037;-77
2021/05/14 04:28:25;;;;;;;9.30;5.65;;;8.40;99.90;;;;;;5026858;28;20224;-77
2021/05/14 04:30:51;;;;;;;10.75;6.18;;;8.40;99.90;;;;;;5031008;28;20160;-77
2021/05/14 04:33:17;;;;;;;11.98;6.38;;;8.50;99.90;;;;;;5019049;28;20038;-76
2021/05/14 04:35:42;;;;;;;10.88;5.75;;;8.50;99.90;;;;;;5024976;28;20466;-76
2021/05/14 04:38:08;;;;;;;11.70;6.25;;;8.50;99.90;;;;;;5023591;28;20091;-76
2021/05/14 04:40:34;;;;;;;14.20;6.00;;;8.50;99.90;;;;;;5022142;28;20494;-76
2021/05/14 04:43:04;;;;;;;10.60;6.95;;;8.50;99.90;;;;;;5022142;28;20049;-77
2021/05/14 04:45:30;;;;;;;12.77;6.53;;;8.50;99.90;;;;;;5038280;28;20064;-77
2021/05/14 04:47:57;;;;;;;11.98;5.93;;;8.50;99.90;;;;;;5033463;28;20049;-77
2021/05/14 04:50:23;;;;;;;11.23;5.93;;;8.50;99.90;;;;;;5024401;28;20060;-76
2021/05/14 04:53:06;;;;;;;12.38;6.32;;;8.50;99.90;;;;;;5025859;28;20121;-76
2021/05/14 04:55:32;;;;;;;12.43;6.55;;;8.60;99.90;;;;;;5031726;28;20079;-77
2021/05/14 04:57:58;;;;;;;;;;;8.60;99.90;;;;;;5031173;28;20030;-77
2021/05/14 05:00:25;;;;;;;13.27;6.65;;;8.60;99.90;;;;;;5018952;28;19923;-77
2021/05/14 05:02:52;;;;;;;9.68;6.43;;;8.60;99.90;;;;;;5023135;28;20061;-76
2021/05/14 05:05:18;;;;;;;7.95;5.32;;;8.60;99.90;;;;;;5025842;28;20060;-75
2021/05/14 05:07:44;;;;;;;14.00;5.47;;;8.70;99.90;;;;;;5037271;28;20037;-77
2021/05/14 05:10:10;;;;;;;11.43;5.10;;;8.70;99.90;;;;;;5029954;28;20029;-76
2021/05/14 05:12:36;;;;;;;9.05;5.70;;;8.70;99.90;;;;;;5026180;28;20042;-76
2021/05/14 05:15:03;;;;;;;11.38;6.68;;;8.70;99.90;;;;;;5027313;28;20113;-76
2021/05/14 05:17:29;;;;;;;11.38;6.47;;;8.70;99.90;;;;;;5027916;28;20100;-76
2021/05/14 05:19:55;;;;;;;12.65;5.90;;;8.80;99.90;;;;;;5035090;28;20037;-77
2021/05/14 05:22:22;;;;;;;13.05;5.75;;;8.90;99.90;;;;;;5020267;28;20321;-76
2021/05/14 05:24:48;;;;;;;12.50;6.00;;;8.80;99.90;;;;;;5019058;28;20045;-76
2021/05/14 05:27:15;;;;;;;13.90;6.63;;;8.80;99.90;;;;;;5041748;28;20041;-76
2021/05/14 05:29:41;;;;;;;8.82;5.95;;;8.80;99.90;;;;;;5024097;28;20053;-76
2021/05/14 05:32:07;;;;;;;13.18;6.45;;;8.80;99.90;;;;;;5029976;28;20363;-76
2021/05/14 05:34:33;;;;;;;8.82;6.13;;;8.90;99.90;;;;;;5011930;28;20034;-76
2021/05/14 05:36:59;;;;;;;16.52;7.43;;;8.90;99.90;;;;;;5037935;28;20037;-76
2021/05/14 05:39:25;;;;;;;12.98;6.65;;;8.90;99.90;;;;;;5025425;28;20124;-76
2021/05/14 05:41:51;;;;;;;12.85;7.22;;;8.90;99.90;;;;;;5021643;28;20038;-76
2021/05/14 05:44:17;;;;;;;8.63;6.38;;;9.00;99.90;;;;;;5020773;28;20040;-76
2021/05/14 05:46:42;;;;;;;10.75;6.22;;;9.00;99.90;;;;;;5038657;28;20120;-76
2021/05/14 05:49:08;;;;;;;13.32;6.25;;;9.10;99.90;;;;;;5013613;28;20086;-77
2021/05/14 05:51:34;;;;;;;11.00;6.88;;;9.00;99.90;;;;;;5025569;28;20455;-76
2021/05/14 05:54:01;;;;;;;9.68;6.30;;;9.00;99.90;;;;;;5023143;28;20087;-76
2021/05/14 05:56:27;;;;;;;14.00;6.20;;;9.10;99.90;;;;;;5027504;28;20053;-76
2021/05/14 05:58:53;;;;;;;;;;;9.20;99.90;;;;;;5038200;28;20033;-76
2021/05/14 06:01:20;;;;;;;12.32;6.82;;;9.20;99.90;;;;;;5029264;28;19963;-76
2021/05/14 06:03:46;;;;;;;11.07;6.88;;;9.30;99.90;;;;;;5014378;28;20431;-76
2021/05/14 06:06:12;;;;;;;14.25;7.30;;;9.30;99.90;;;;;;5033128;28;20049;-76
2021/05/14 06:08:38;;;;;;;10.82;7.63;;;9.40;99.90;;;;;;5030224;28;20038;-76
2021/05/14 06:11:04;;;;;;;14.05;7.47;;;9.40;99.90;;;;;;5039629;28;20045;-77
2021/05/14 06:13:31;;;;;;;14.48;7.28;;;9.40;99.90;;;;;;5023444;28;20042;-77
2021/05/14 06:15:59;;;;;;;13.43;6.65;;;9.40;99.90;;;;;;5026580;28;20444;-77
2021/05/14 06:18:28;;;;;;;11.32;5.25;;;9.40;99.90;;;;;;5031334;28;20128;-77
2021/05/14 06:20:54;;;;;;;10.80;6.10;;;9.40;99.90;;;;;;5022502;28;20038;-77
2021/05/14 06:23:21;;;;;;;12.50;6.20;;;9.40;99.90;;;;;;5027132;28;20049;-76
2021/05/14 06:25:47;;;;;;;10.40;6.30;;;9.30;99.90;;;;;;5031056;28;20044;-75
2021/05/14 06:28:21;;;;;;;10.75;6.32;;;9.30;99.90;;;;;;5034923;28;20495;-77
2021/05/14 06:30:47;;;;;;;10.10;5.18;;;9.30;99.90;;;;;;5026170;28;20442;-76
2021/05/14 06:33:13;;;;;;;;;;;9.30;99.90;;;;;;5019846;28;20042;-76
2021/05/14 06:35:40;;;;;;;10.10;5.68;;;9.30;99.90;;;;;;5029345;28;19923;-77
2021/05/14 06:38:06;;;;;;;9.15;6.00;;;9.30;99.90;;;;;;5032265;28;20040;-76
2021/05/14 06:40:33;;;;;;;11.65;6.22;;;9.30;99.90;;;;;;5027618;28;20476;-76
2021/05/14 06:42:59;;;;;;;12.90;5.93;;;9.40;99.90;;;;;;5029070;28;20033;-77
2021/05/14 06:45:25;;;;;;;11.27;6.00;;;9.30;99.90;;;;;;5029876;28;20087;-77
2021/05/14 06:47:51;;;;;;;14.88;5.75;;;9.30;99.90;;;;;;5029180;28;20038;-76
2021/05/14 06:50:17;;;;;;;14.43;6.47;;;9.40;99.90;;;;;;5024423;28;20084;-76
2021/05/14 06:52:43;;;;;;;11.95;5.85;;;9.50;99.90;;;;;;5034287;28;20061;-76
2021/05/14 06:55:10;;;;;;;8.02;4.97;;;9.60;99.90;;;;;;5035275;28;20044;-77
2021/05/14 06:57:37;;;;;;;14.38;5.38;;;9.70;99.90;;;;;;5033402;28;20359;-75
2021/05/14 07:00:05;;;;;;;13.13;6.07;;;9.70;99.90;;;;;;5031564;28;20556;-76
2021/05/14 07:02:31;;;;;;;11.70;5.75;;;9.70;99.90;;;;;;5017073;28;20163;-76
2021/05/14 07:04:57;;;;;;;11.50;6.15;;;9.80;99.90;;;;;;5025301;28;20526;-76
2021/05/14 07:07:23;;;;;;;9.15;6.07;;;9.90;99.90;;;;;;5042839;28;20109;-76
2021/05/14 07:09:49;;;;;;;11.45;6.00;;;10.00;99.90;;;;;;5022653;28;20033;-76
2021/05/14 07:12:14;;;;;;;9.05;5.85;;;10.00;99.90;;;;;;5036085;28;20045;-77
2021/05/14 07:14:40;;;;;;;13.52;6.20;;;10.00;99.90;;;;;;5018494;28;20038;-77
2021/05/14 07:17:07;;;;;;;11.50;5.60;;;10.10;99.90;;;;;;5022245;28;20557;-76
2021/05/14 07:19:41;;;;;;;10.50;5.65;;;10.10;99.90;;;;;;5028155;28;20037;-77
2021/05/14 07:22:07;;;;;;;10.75;5.15;;;10.20;99.90;;;;;;5041575;28;20045;-77
2021/05/14 07:24:36;;;;;;;9.65;5.55;;;10.30;99.90;;;;;;5026983;28;20404;-77
2021/05/14 07:27:02;;;;;;;9.60;5.65;;;10.40;99.90;;;;;;5030267;28;20107;-76
2021/05/14 07:29:28;;;;;;;12.13;6.30;;;10.40;99.90;;;;;;5024908;28;20041;-76
2021/05/14 07:31:54;;;;;;;8.27;5.38;;;10.40;99.90;;;;;;5027642;28;20529;-76
2021/05/14 07:34:20;;;;;;;11.23;5.70;;;10.30;99.90;;;;;;5038353;28;20057;-76
2021/05/14 07:36:45;;;;;;;9.25;6.13;;;10.40;99.90;;;;;;5030951;28;20431;-76
2021/05/14 07:39:11;;;;;;;10.55;6.18;;;10.50;99.90;;;;;;5018095;28;20069;-76
2021/05/14 07:41:42;;;;;;;11.40;6.13;;;10.60;99.90;;;;;;5036132;28;20654;-75
2021/05/14 07:44:08;;;;;;;10.18;6.25;;;10.60;99.90;;;;;;5023000;28;20046;-77
2021/05/14 07:46:36;;;;;;;9.25;5.47;;;10.50;99.90;;;;;;5039232;28;20394;-76
2021/05/14 07:49:02;;;;;;;16.33;6.18;;;10.40;99.90;;;;;;5033587;28;20128;-76
2021/05/14 07:51:28;;;;;;;;;;;10.40;99.90;;;;;;5010356;28;20044;-76
2021/05/14 07:53:54;;;;;;;10.85;5.65;;;10.40;99.90;;;;;;5026595;28;19952;-76
2021/05/14 07:56:19;;;;;;;8.55;5.30;;;10.50;99.90;;;;;;5021261;28;20038;-76
2021/05/14 07:58:52;;;;;;;10.88;5.65;;;10.50;99.90;;;;;;5027946;28;20042;-76
2021/05/14 08:01:18;;;;;;;8.85;6.10;;;10.50;99.90;;;;;;5025790;28;20593;-76
2021/05/14 08:03:44;;;;;;;;;;;10.50;99.90;;;;;;5019935;28;20478;-77
2021/05/14 08:06:10;;;;;;;9.65;6.03;;;10.60;99.90;;;;;;5014965;28;19917;-76
2021/05/14 08:08:39;;;;;;;11.10;6.35;;;10.60;99.90;;;;;;5007347;28;20116;-76
2021/05/14 08:11:06;;;;;;;11.73;5.55;;;10.50;99.90;;;;;;5004491;28;20049;-77
2021/05/14 08:13:38;;;;;;;13.82;6.25;;;10.50;99.90;;;;;;5029599;28;20590;-76
2021/05/14 08:16:04;;;;;;;;;;;10.50;99.90;;;;;;5031100;28;20037;-77
2021/05/14 08:18:39;;;;;;;15.18;5.38;;;10.60;99.90;;;;;;5028575;28;19932;-76
2021/05/14 08:21:05;;;;;;;9.65;5.53;;;10.60;99.90;;;;;;5040379;28;20042;-76
2021/05/14 08:23:37;;;;;;;14.60;6.75;;;10.70;99.90;;;;;;5039003;28;20037;-76
2021/05/14 08:26:06;;;;;;;10.20;5.55;;;10.70;99.90;;;;;;5047311;28;20045;-77
2021/05/14 08:28:32;;;;;;;14.68;6.18;;;10.70;99.90;;;;;;5047155;28;20439;-77
2021/05/14 08:31:02;;;;;;;7.60;5.45;;;10.80;99.90;;;;;;5020256;28;20061;-76
2021/05/14 08:33:29;;;;;;;11.00;6.00;;;10.90;99.90;;;;;;5026084;28;20063;-77
2021/05/14 08:35:55;;;;;;;10.93;5.63;;;10.90;99.90;;;;;;5026551;28;20053;-77
2021/05/14 08:38:22;;;;;;;10.85;5.40;;;11.00;99.90;;;;;;5018844;28;20467;-76
2021/05/14 08:40:48;;;;;;;8.48;5.65;;;11.00;99.90;;;;;;5028635;28;20091;-77
2021/05/14 08:43:16;;;;;;;11.85;5.53;;;11.00;99.90;;;;;;5027242;28;20064;-76
2021/05/14 08:45:42;;;;;;;15.43;5.78;;;10.90;99.90;;;;;;5030196;28;20044;-76
2021/05/14 08:48:31;;;;;;;15.03;6.30;;;11.00;99.90;;;;;;5016251;28;20037;-77
2021/05/14 08:50:57;;;;;;;11.73;5.95;;;11.00;99.90;;;;;;5020206;28;20045;-76
2021/05/14 08:53:44;;;;;;;11.18;5.20;;;11.00;99.90;;;;;;5017770;28;20088;-76
2021/05/14 08:56:12;;;;;;;10.73;5.75;;;11.10;99.90;;;;;;5032031;28;20041;-77
2021/05/14 08:58:39;;;;;;;;;;;11.10;99.90;;;;;;5030238;28;20034;-76
2021/05/14 09:01:05;;;;;;;8.93;6.15;;;11.10;99.90;;;;;;5029872;28;19924;-76
2021/05/14 09:04:03;;;;;;;13.43;5.75;;;11.10;99.90;;;;;;5031001;28;20474;-77
2021/05/14 09:06:37;;;;;;;12.82;6.00;;;11.10;99.90;;;;;;5019535;28;20080;-77
2021/05/14 09:09:19;;;;;;;10.18;6.05;;;11.10;99.90;;;;;;5015620;28;20037;-77
2021/05/14 09:11:55;;;;;;;16.27;6.00;;;11.20;99.90;;;;;;5019844;28;20041;-77
2021/05/14 09:14:44;;;;;;;8.77;6.03;;;11.30;99.90;;;;;;5036312;28;20093;-76
2021/05/14 09:17:18;;;;;;;13.52;6.22;;;11.30;99.90;;;;;;5014368;28;20037;-78
2021/05/14 09:19:55;;;;;;;9.52;5.38;;;11.30;99.90;;;;;;5027979;28;20114;-76
2021/05/14 09:22:25;;;;;;;9.82;6.00;;;11.30;99.90;;;;;;5021292;28;20140;-76
2021/05/14 09:24:59;;;;;;;10.38;4.85;;;11.40;99.90;;;;;;5029216;28;20154;-76
2021/05/14 09:27:30;;;;;;;9.88;5.35;;;11.60;99.90;;;;;;5035156;28;20050;-76
2021/05/14 09:29:58;;;;;;;9.00;4.68;;;11.80;99.90;;;;;;5017554;28;20108;-76
2021/05/14 09:32:29;;;;;;;10.10;5.30;;;11.90;99.90;;;;;;5022317;28;20088;-77
2021/05/14 09:34:57;;;;;;;10.88;5.13;;;11.90;99.90;;;;;;5025803;28;20029;-76
2021/05/14 09:37:28;;;;;;;9.27;6.50;;;11.90;99.90;;;;;;5031443;28;20045;-75
2021/05/14 09:40:20;;;;;;;9.07;5.57;;;11.90;99.90;;;;;;5015236;28;20463;-77
2021/05/14 09:42:49;;;;;;;10.77;5.80;;;12.00;99.90;;;;;;5015252;28;20161;-77
2021/05/14 09:45:17;;;;;;;12.70;5.82;;;12.10;99.90;;;;;;5028536;28;20029;-77
2021/05/14 09:47:56;;;;;;;9.32;5.30;;;12.40;99.90;;;;;;5030276;28;20037;-76
2021/05/14 09:50:34;;;;;;;11.27;5.45;;;12.60;99.90;;;;;;5033150;28;20050;-76
2021/05/14 09:53:10;;;;;;;8.23;4.88;;;12.70;99.90;;;;;;5016439;28;20036;-76
2021/05/14 09:55:39;;;;;;;9.10;5.40;;;12.80;99.90;;;;;;5041580;28;20034;-75
2021/05/14 09:58:14;;;;;;;13.43;6.35;;;12.90;99.90;;;;;;5008370;28;20196;-77
2021/05/14 10:00:41;;;;;;;10.68;6.00;;;12.90;99.90;;;;;;5040009;28;20096;-76
2021/05/14 10:03:09;;;;;;;;;;;12.80;99.90;;;;;;5022529;28;20030;-77
2021/05/14 10:05:37;;;;;;;9.98;6.13;;;12.70;99.90;;;;;;5017290;28;19923;-77
2021/05/14 10:08:04;;;;;;;10.48;5.40;;;12.60;99.90;;;;;;5024201;28;20550;-76
2021/05/14 10:10:50;;;;;;;;;;;12.80;99.90;;;;;;5029050;28;20075;-76
2021/05/14 10:13:16;;;;;;;13.97;6.57;;;12.90;99.90;;;;;;5019528;28;19918;-76
2021/05/14 10:15:42;;;;;;;;;;;13.00;99.90;;;;;;5025732;28;20040;-77
2021/05/14 10:18:16;;;;;;;9.85;5.80;;;12.80;99.90;;;;;;5026131;28;19921;-77
2021/05/14 10:20:43;;;;;;;11.43;6.80;;;12.60;99.90;;;;;;5030744;28;20042;-76
2021/05/14 10:23:10;;;;;;;10.52;6.10;;;12.60;99.90;;;;;;5026435;28;20037;-77
2021/05/14 10:25:49;;;;;;;11.00;6.75;;;12.60;99.90;;;;;;5025062;28;20130;-76
2021/05/14 10:28:23;;;;;;;12.70;7.22;;;12.50;99.90;;;;;;5014793;28;20038;-76
2021/05/14 10:31:00;;;;;;;12.68;6.35;;;12.50;99.90;;;;;;5022171;28;20034;-77
2021/05/14 10:33:49;;;;;;;14.15;7.47;;;12.40;99.90;;;;;;5027110;28;20037;-75
2021/05/14 10:36:21;;;;;;;16.95;6.07;;;12.40;99.90;;;;;;5015852;28;20037;-77
2021/05/14 10:39:27;;;;;;;11.73;6.32;;;12.20;99.90;;;;;;5026573;28;20081;-76
2021/05/14 10:41:55;;;;;;;11.02;6.35;;;12.20;99.90;;;;;;5020720;28;20056;-77
2021/05/14 10:44:46;;;;;;;10.50;5.97;;;12.40;99.90;;;;;;5027457;28;20068;-77
2021/05/14 10:47:21;;;;;;;12.00;6.10;;;12.50;99.90;;;;;;5018977;28;20096;-77
2021/05/14 10:49:59;;;;;;;8.57;6.00;;;12.50;99.90;;;;;;5015322;28;20161;-78
2021/05/14 10:52:27;;;;;;;10.13;6.20;;;12.40;99.90;;;;;;5038846;28;20169;-77
2021/05/14 10:54:54;;;;;;;13.43;6.85;;;12.20;99.90;;;;;;5031983;28;20069;-77
2021/05/14 10:57:38;;;;;;;10.75;5.93;;;12.20;99.90;;;;;;5028008;28;20069;-77
2021/05/14 11:00:22;;;;;;;10.63;5.65;;;12.20;99.90;;;;;;5030671;28;20041;-77
2021/05/14 11:03:13;;;;;;;13.40;6.78;;;12.20;99.90;;;;;;5030054;28;20042;-77
2021/05/14 11:05:42;;;;;;;9.50;5.85;;;12.30;99.90;;;;;;5026953;28;20387;-76
2021/05/14 11:08:35;;;;;;;8.60;6.05;;;12.30;99.90;;;;;;5035613;28;20195;-77
2021/05/14 11:11:08;;;;;;;9.25;5.65;;;12.30;99.90;;;;;;5033152;28;20366;-76
2021/05/14 11:13:48;;;;;;;12.63;6.07;;;12.30;99.90;;;;;;5035816;28;20121;-77
2021/05/14 11:16:32;;;;;;;8.65;5.53;;;12.40;99.90;;;;;;5027524;28;20033;-76
2021/05/14 11:19:12;;;;;;;10.60;5.13;;;12.50;99.90;;;;;;5027693;28;20030;-77
2021/05/14 11:21:58;;;;;;;7.68;5.55;;;12.70;99.90;;;;;;5029856;28;20045;-77
2021/05/14 11:24:30;;;;;;;12.20;6.18;;;13.00;99.90;;;;;;5022815;28;20049;-77
2021/05/14 11:27:08;;;;;;;8.57;5.15;;;13.10;99.90;;;;;;5031273;28;20045;-77
2021/05/14 11:29:37;;;;;;;8.50;4.95;;;13.30;99.90;;;;;;5035463;28;20038;-76
2021/05/14 11:32:22;;;;;;;10.93;6.22;;;13.40;99.90;;;;;;5032849;28;20059;-75
2021/05/14 11:35:05;;;;;;;12.50;6.25;;;13.40;99.90;;;;;;5028663;28;20041;-78
2021/05/14 11:37:33;;;;;;;9.27;5.93;;;13.40;99.10;;;;;;5034769;28;20053;-74
2021/05/14 11:40:12;;;;;;;9.48;5.38;;;13.30;99.50;;;;;;5017139;28;20116;-74
2021/05/14 11:42:42;;;;;;;7.97;5.50;;;13.30;99.90;;;;;;5038208;28;20034;-76
2021/05/14 11:45:11;;;;;;;11.40;5.93;;;13.40;99.90;;;;;;5029014;28;20108;-77
2021/05/14 11:47:43;;;;;;;12.55;6.35;;;13.50;99.90;;;;;;5020971;28;20056;-77
2021/05/14 11:50:34;;;;;;;11.48;6.90;;;13.60;99.90;;;;;;5024223;28;20050;-77
2021/05/14 11:53:05;;;;;;;10.27;5.70;;;13.70;98.90;;;;;;5029409;28;20048;-77
2021/05/14 11:55:35;;;;;;;10.65;6.07;;;13.60;99.70;;;;;;5021797;28;20071;-76
2021/05/14 11:58:02;;;;;;;10.98;5.65;;;13.60;99.30;;;;;;5021917;28;20033;-77
2021/05/14 12:00:38;;;;;;;11.45;6.05;;;13.60;99.70;;;;;;5031012;28;20367;-77
2021/05/14 12:03:16;;;;;;;9.40;6.38;;;13.50;99.50;;;;;;5025190;28;20037;-76
2021/05/14 12:05:44;;;;;;;10.07;5.80;;;13.40;99.90;;;;;;5031918;28;20041;-76
2021/05/14 12:08:21;;;;;;;9.07;6.32;;;13.50;99.90;;;;;;5037020;28;20072;-75
2021/05/14 12:10:48;;;;;;;9.80;5.85;;;13.70;99.70;;;;;;5031627;28;20045;-76
2021/05/14 12:13:16;;;;;;;15.32;6.93;;;13.60;99.90;;;;;;5039405;28;20030;-77
2021/05/14 12:15:43;;;;;;;11.43;7.32;;;13.60;99.90;;;;;;5031138;28;20143;-76
2021/05/14 12:18:09;;;;;;;14.20;7.57;;;13.70;99.90;;;;;;5037439;28;20045;-76
2021/05/14 12:20:42;;;;;;;11.95;7.22;;;13.70;99.70;;;;;;5026539;28;20041;-77
2021/05/14 12:23:13;;;;;;;11.48;7.80;;;13.60;99.40;;;;;;5021742;28;20029;-78
2021/05/14 12:25:48;;;;;;;17.13;7.75;;;13.40;99.90;;;;;;5020934;28;20060;-76
2021/05/14 12:28:26;;;;;;;10.98;7.40;;;13.40;99.90;;;;;;5031644;28;20124;-76
2021/05/14 12:30:53;;;;;;;10.02;6.82;;;13.30;99.90;;;;;;5030686;28;20041;-77
2021/05/14 12:33:18;;;;;;;14.93;7.20;;;13.30;99.90;;;;;;5031490;28;20037;-77
2021/05/14 12:36:06;;;;;;;12.25;7.85;;;13.50;99.90;;;;;;5034497;28;20038;-77
2021/05/14 12:38:44;;;;;;;11.18;6.85;;;13.50;99.90;;;;;;5032598;28;20056;-78
2021/05/14 12:41:19;;;;;;;12.32;7.47;;;13.40;99.90;;;;;;5030240;28;20466;-79
2021/05/14 12:43:45;;;;;;;10.97;6.87;;;13.30;99.90;;;;;;5021678;28;20332;-78
2021/05/14 12:46:11;;;;;;;13.25;7.25;;;13.40;99.90;;;;;;5024045;28;20488;-78
2021/05/14 12:48:37;;;;;;;11.55;7.55;;;13.50;99.90;;;;;;5026065;28;20038;-78
2021/05/14 12:51:03;;;;;;;11.88;7.25;;;13.60;99.90;;;;;;5022878;28;20049;-78
2021/05/14 12:53:28;;;;;;;10.98;7.10;;;13.50;99.90;;;;;;5011580;28;20033;-77
2021/05/14 12:55:54;;;;;;;9.32;6.47;;;13.40;99.90;;;;;;5007033;28;20034;-76
2021/05/14 12:58:20;;;;;;;11.25;6.95;;;13.40;99.90;;;;;;5026556;28;20061;-77
2021/05/14 13:00:46;;;;;;;14.02;7.28;;;13.30;99.90;;;;;;5034855;28;20030;-78
2021/05/14 13:03:13;;;;;;;10.70;6.60;;;13.10;99.90;;;;;;5030600;28;20136;-77